Time;durP1;ratioP1;P1;durP2;ratioP2;P2;SDS_P1;SDS_P2;PMS_P1;PMS_P2;Temp;Humidity;BMP_temperature;BMP_pressure;BME280_temperature;BME280_humidity;BME280_pressure;Samples;Min_cycle;Max_cycle;Signal;HPM_P1;HPM_P2
2022/06/08 00:02:22;;;;;;;4.85;2.62;;;;;;;23.28;54.05;99096.44;4351687;32;33209;-88
2022/06/08 00:04:50;;;;;;;5.40;3.00;;;;;;;23.40;53.51;99090.34;4338922;32;32279;-88
2022/06/08 00:07:17;;;;;;;5.78;3.05;;;;;;;23.15;54.35;99092.44;4338447;32;35709;-88
2022/06/08 00:09:45;;;;;;;4.82;2.83;;;;;;;23.06;54.48;99101.84;4338625;32;33994;-89
2022/06/08 00:12:13;;;;;;;6.28;2.87;;;;;;;22.52;55.83;99100.44;4338515;32;33895;-88
2022/06/08 00:14:41;;;;;;;5.37;2.80;;;;;;;22.34;56.56;99102.91;4338435;32;33768;-88
2022/06/08 00:17:10;;;;;;;6.07;3.70;;;;;;;22.98;54.66;99100.56;4350670;32;34554;-88
2022/06/08 00:19:38;;;;;;;5.43;3.15;;;;;;;23.12;54.21;99098.66;4338603;32;33357;-87
2022/06/08 00:22:06;;;;;;;6.18;3.30;;;;;;;23.18;54.34;99094.63;4338400;32;33522;-88
2022/06/08 00:24:34;;;;;;;8.00;3.30;;;;;;;22.89;55.68;99094.00;4338358;32;32362;-89
2022/06/08 00:27:02;;;;;;;6.05;3.50;;;;;;;22.67;56.92;99087.06;4326286;32;33167;-88
2022/06/08 00:29:33;;;;;;;4.97;2.90;;;;;;;22.99;56.19;99082.66;4338480;32;34740;-88
2022/06/08 00:32:01;;;;;;;5.85;3.10;;;;;;;23.01;55.88;99085.97;4351039;32;33910;-88
2022/06/08 00:34:30;;;;;;;5.43;3.08;;;;;;;22.86;56.43;99091.81;4338807;32;34067;-88
2022/06/08 00:36:57;;;;;;;4.85;3.30;;;;;;;22.80;56.64;99090.22;4338355;32;34551;-88
2022/06/08 00:39:25;;;;;;;6.12;3.33;;;;;;;22.41;57.77;99099.75;4338335;32;32556;-88
2022/06/08 00:41:56;;;;;;;6.78;3.83;;;;;;;22.83;56.66;99089.62;4338566;32;33496;-87
2022/06/08 00:44:35;;;;;;;5.80;3.12;;;;;;;22.82;56.89;99085.16;4338195;32;32241;-87
2022/06/08 00:47:04;;;;;;;7.62;3.28;;;;;;;22.93;56.30;99086.66;4338613;32;32666;-88
2022/06/08 00:50:04;;;;;;;5.93;3.12;;;;;;;22.67;56.94;99092.66;4338565;32;34098;-88
2022/06/08 00:52:34;;;;;;;5.55;3.20;;;;;;;22.84;56.24;99113.66;4335263;33;32023;-88
2022/06/08 00:55:06;;;;;;;5.72;2.92;;;;;;;22.96;55.96;99209.19;4335698;33;32746;-88
2022/06/08 00:57:58;;;;;;;6.78;3.15;;;;;;;23.09;55.53;99200.03;4335746;33;33021;-88
2022/06/08 01:00:33;;;;;;;5.90;2.92;;;;;;;23.28;54.98;99166.44;4335713;33;32591;-88
2022/06/08 01:03:05;;;;;;;4.95;3.00;;;;;;;23.07;55.73;99159.50;4336043;33;33213;-89
2022/06/08 01:05:42;;;;;;;6.05;3.30;;;;;;;23.25;54.89;99148.28;4323475;33;33067;-89
2022/06/08 01:08:38;;;;;;;5.30;2.75;;;;;;;23.21;54.89;99149.19;4335776;33;34744;-87
2022/06/08 01:11:31;;;;;;;5.18;2.95;;;;;;;23.09;55.00;99149.66;4335755;33;34731;-89
2022/06/08 01:14:02;;;;;;;4.85;2.87;;;;;;;23.26;54.66;99149.94;4342551;33;33373;-88
2022/06/08 01:16:31;;;;;;;4.68;2.53;;;;;;;22.92;55.80;99140.97;4335665;33;33508;-88
2022/06/08 01:19:01;;;;;;;4.97;2.70;;;;;;;22.31;57.91;99141.81;4323574;33;32918;-88
2022/06/08 01:21:32;;;;;;;5.35;3.10;;;;;;;22.68;56.72;99138.25;4335533;33;34274;-88
2022/06/08 01:24:06;;;;;;;6.15;2.95;;;;;;;22.52;57.39;99128.41;4347211;33;32178;-87
2022/06/08 01:26:42;;;;;;;7.62;3.28;;;;;;;22.46;57.75;99130.44;4335531;33;34554;-88
2022/06/08 01:29:35;;;;;;;4.78;2.80;;;;;;;22.39;57.94;99138.34;4359784;32;35320;-87
2022/06/08 01:32:28;;;;;;;5.12;2.90;;;;;;;22.22;58.71;99143.59;4347008;33;33431;-88
2022/06/08 01:35:00;;;;;;;6.22;2.95;;;;;;;22.08;59.36;99145.50;4335298;33;32666;-87
2022/06/08 01:37:39;;;;;;;6.22;2.90;;;;;;;22.06;59.51;99130.97;4335435;33;32449;-88
2022/06/08 01:40:26;;;;;;;6.10;2.90;;;;;;;22.01;60.21;99127.13;4335201;33;33947;-88
2022/06/08 01:43:23;;;;;;;5.62;2.75;;;;;;;22.09;59.84;99119.22;4360193;32;34999;-88
2022/06/08 01:46:23;;;;;;;6.20;3.35;;;;;;;22.07;60.02;99110.28;4341330;33;33959;-88
2022/06/08 01:49:10;;;;;;;10.57;3.10;;;;;;;22.14;60.04;99105.12;4335340;33;33915;-89
2022/06/08 01:51:44;;;;;;;6.50;3.10;;;;;;;22.14;60.27;99093.97;4347205;33;34709;-88
2022/06/08 01:54:28;;;;;;;5.60;2.87;;;;;;;21.89;60.91;99092.31;4362456;32;34158;-90
2022/06/08 01:57:21;;;;;;;4.87;2.72;;;;;;;21.75;61.76;99103.34;4349755;32;32514;-89
2022/06/08 02:00:08;;;;;;;6.68;2.83;;;;;;;21.86;61.21;99113.28;4362410;32;33568;-91
2022/06/08 02:02:51;;;;;;;5.25;2.80;;;;;;;21.88;61.33;99127.78;4340158;32;32967;-91
2022/06/08 02:05:25;;;;;;;6.80;3.12;;;;;;;21.86;61.29;99130.06;4349849;32;33219;-90
2022/06/08 02:07:59;;;;;;;6.03;2.90;;;;;;;21.82;61.64;99126.19;4362602;32;33112;-91
2022/06/08 02:10:39;;;;;;;6.50;3.05;;;;;;;22.01;61.08;99123.47;4337881;32;33947;-92
2022/06/08 02:13:14;;;;;;;5.40;2.92;;;;;;;21.97;61.34;99139.97;4349874;32;32836;-90
2022/06/08 02:15:45;;;;;;;5.68;3.22;;;;;;;22.02;61.24;99150.31;4349753;32;33384;-91
2022/06/08 02:18:26;;;;;;;7.37;3.28;;;;;;;22.24;60.71;99152.53;4349217;32;33171;-90
2022/06/08 02:20:57;;;;;;;4.82;2.95;;;;;;;22.31;60.25;99150.22;4337520;32;32917;-85
2022/06/08 02:23:30;;;;;;;10.63;3.05;;;;;;;22.37;59.92;99149.00;4349488;32;33914;-85
2022/06/08 02:26:12;;;;;;;5.03;2.83;;;;;;;22.13;60.52;99154.63;4337258;32;32614;-85
2022/06/08 02:28:44;;;;;;;5.65;3.10;;;;;;;22.00;61.10;99153.38;4337739;32;32469;-85
2022/06/08 02:31:20;;;;;;;5.72;3.05;;;;;;;22.14;60.56;99149.84;4350045;32;33351;-85
2022/06/08 02:36:51;;;;;;;6.95;3.42;;;;;;;22.05;60.94;99143.28;4351472;32;34222;-86
2022/06/08 02:39:22;;;;;;;9.27;3.15;;;;;;;21.82;61.92;99148.53;4349448;32;31215;-85
2022/06/08 02:41:55;;;;;;;8.48;3.22;;;;;;;21.48;63.64;99161.72;4349359;32;32004;-86
2022/06/08 02:44:27;;;;;;;7.53;3.30;;;;;;;21.65;63.09;99160.16;4349586;32;34225;-86
2022/06/08 02:47:04;;;;;;;6.60;3.20;;;;;;;21.74;62.78;99157.56;4337178;32;33125;-86
2022/06/08 02:49:36;;;;;;;6.97;3.40;;;;;;;21.70;62.83;99146.13;4349129;32;32099;-86
2022/06/08 02:52:11;;;;;;;7.35;3.70;;;;;;;21.06;64.87;99138.06;4336933;32;32047;-86
2022/06/08 02:54:39;;;;;;;6.30;3.50;;;;;;;21.12;64.76;99117.37;4337208;32;33615;-85
2022/06/08 02:57:14;;;;;;;7.43;3.58;;;;;;;21.08;65.07;99105.12;4337043;32;32480;-85
2022/06/08 02:59:59;;;;;;;5.68;3.37;;;;;;;21.06;65.03;99112.94;4337217;32;32824;-85
2022/06/08 03:02:35;;;;;;;6.45;3.25;;;;;;;21.21;64.34;99118.44;4361846;32;34067;-85
2022/06/08 03:05:13;;;;;;;6.18;3.92;;;;;;;21.22;64.69;99128.47;4337200;32;33405;-85
2022/06/08 03:07:53;;;;;;;5.62;3.22;;;;;;;21.04;65.65;99132.78;4349517;32;34214;-85
2022/06/08 03:10:25;;;;;;;6.35;3.72;;;;;;;20.71;66.83;99133.59;4336763;32;31754;-85
2022/06/08 03:13:04;;;;;;;5.50;3.30;;;;;;;20.84;65.97;99138.50;4348895;32;33705;-85
2022/06/08 03:15:36;;;;;;;6.68;3.50;;;;;;;20.91;66.67;99150.16;4347394;32;34327;-85
2022/06/08 03:18:07;;;;;;;5.65;3.62;;;;;;;20.93;66.70;99147.91;4347155;32;34640;-86
2022/06/08 03:20:35;;;;;;;8.25;3.60;;;;;;;21.01;66.44;99150.09;4347524;32;33507;-85
2022/06/08 03:23:03;;;;;;;7.32;3.87;;;;;;;21.03;65.84;99149.81;4347592;32;33406;-86
2022/06/08 03:25:32;;;;;;;8.77;3.65;;;;;;;21.02;65.58;99159.28;4335337;32;34061;-84
2022/06/08 03:28:01;;;;;;;5.55;3.45;;;;;;;20.43;67.67;99159.41;4348159;32;33398;-84
2022/06/08 03:30:31;;;;;;;6.90;4.12;;;;;;;20.13;68.46;99166.75;4338396;32;33629;-84
2022/06/08 03:33:01;;;;;;;6.90;3.60;;;;;;;20.48;67.60;99171.34;4339265;32;32612;-85
2022/06/08 03:35:29;;;;;;;5.65;3.67;;;;;;;20.47;67.72;99163.28;4338687;32;33619;-91
2022/06/08 03:37:59;;;;;;;6.05;4.03;;;;;;;20.97;66.18;99167.69;4338647;32;32600;-94
2022/06/08 03:40:27;;;;;;;6.25;3.80;;;;;;;20.88;66.21;99169.44;4351169;32;33324;-84
2022/06/08 03:42:55;;;;;;;6.28;3.37;;;;;;;20.87;67.01;99170.56;4338784;32;33879;-83
2022/06/08 03:45:23;;;;;;;6.70;3.70;;;;;;;20.89;66.37;99171.09;4339084;32;35270;-84
2022/06/08 03:47:55;;;;;;;9.15;3.75;;;;;;;21.04;65.76;99157.03;4351093;32;34226;-83
2022/06/08 03:50:26;;;;;;;6.30;3.53;;;;;;;20.85;66.16;99156.06;4351079;32;33870;-84
2022/06/08 03:53:02;;;;;;;6.93;3.80;;;;;;;20.77;67.08;99149.16;4350634;32;33302;-84
2022/06/08 03:55:29;;;;;;;;;;;;;;;20.88;66.34;99144.31;4339093;32;34246;-85
2022/06/08 03:57:58;;;;;;;5.43;3.37;;;;;;;20.86;66.28;99147.41;4351003;32;34940;-84
2022/06/08 04:00:27;;;;;;;6.07;3.60;;;;;;;21.08;65.44;99146.13;4326877;32;31729;-84
2022/06/08 04:02:56;;;;;;;6.35;3.90;;;;;;;20.88;65.83;99141.53;4351261;32;33817;-84
2022/06/08 04:05:28;;;;;;;7.53;3.85;;;;;;;20.94;65.91;99138.44;4338835;32;32986;-84
2022/06/08 04:07:57;;;;;;;7.15;3.83;;;;;;;20.80;66.01;99131.03;4350619;32;32476;-91
2022/06/08 04:10:27;;;;;;;7.65;4.10;;;;;;;20.90;66.21;99147.66;4338535;32;33614;-91
2022/06/08 04:12:56;;;;;;;6.25;3.95;;;;;;;20.95;66.46;99153.22;4338529;32;32040;-92
2022/06/08 04:15:44;;;;;;;6.93;3.80;;;;;;;20.95;66.40;99158.78;4326504;32;32990;-91
2022/06/08 04:18:15;;;;;;;7.70;4.30;;;;;;;20.65;67.30;99159.84;4339563;32;33082;-91
2022/06/08 04:20:54;;;;;;;5.78;3.45;;;;;;;20.70;67.07;99154.25;4338465;32;32660;-91
2022/06/08 04:23:25;;;;;;;5.50;3.50;;;;;;;20.91;66.29;99161.31;4338629;32;32283;-92
2022/06/08 04:25:56;;;;;;;7.10;3.78;;;;;;;21.01;65.94;99152.03;4338740;32;32963;-90
2022/06/08 04:28:27;;;;;;;8.13;4.05;;;;;;;20.89;66.75;99154.37;4326460;32;32392;-92
2022/06/08 04:30:58;;;;;;;7.78;4.10;;;;;;;21.23;65.45;99149.69;4338731;32;34095;-92
2022/06/08 04:33:26;;;;;;;6.50;4.00;;;;;;;21.29;65.46;99159.66;4338907;32;33181;-92
2022/06/08 04:36:00;;;;;;;7.57;4.50;;;;;;;20.71;67.69;99155.91;4338876;32;34325;-91
2022/06/08 04:38:30;;;;;;;7.87;4.25;;;;;;;20.66;68.65;99153.16;4338816;32;34734;-87
2022/06/08 04:40:59;;;;;;;7.72;4.40;;;;;;;21.00;67.73;99159.59;4339710;32;31937;-91
2022/06/08 04:43:28;;;;;;;7.80;4.12;;;;;;;20.74;69.27;99149.75;4329334;32;31973;-92
2022/06/08 04:45:59;;;;;;;7.28;4.37;;;;;;;20.77;68.92;99154.75;4354281;32;34937;-91
2022/06/08 04:48:29;;;;;;;6.10;4.10;;;;;;;20.65;69.32;99146.72;4327157;32;33377;-90
2022/06/08 04:50:57;;;;;;;7.53;4.55;;;;;;;21.06;67.53;99135.28;4340004;32;32410;-93
2022/06/08 04:53:25;;;;;;;6.75;4.07;;;;;;;20.91;68.07;99138.16;4338816;32;32530;-92
2022/06/08 04:55:53;;;;;;;7.50;4.72;;;;;;;21.08;67.65;99132.19;4338778;32;32976;-91
2022/06/08 04:58:26;;;;;;;8.85;5.03;;;;;;;20.94;68.41;99135.62;4338327;32;32680;-82
2022/06/08 05:00:56;;;;;;;7.47;5.00;;;;;;;20.81;69.11;99138.25;4351205;32;32018;-89
2022/06/08 05:03:24;;;;;;;10.10;6.80;;;;;;;21.44;67.79;99125.22;4337789;32;32165;-88
2022/06/08 05:05:52;;;;;;;6.55;3.60;;;;;;;21.65;66.55;99131.41;4338923;32;33062;-90
2022/06/08 05:08:23;;;;;;;8.45;5.28;;;;;;;21.59;66.01;99140.94;4339368;32;34277;-89
2022/06/08 05:10:52;;;;;;;8.02;4.50;;;;;;;21.70;66.03;99143.34;4339502;32;32698;-89
2022/06/08 05:13:23;;;;;;;5.47;3.87;;;;;;;21.67;66.36;99143.09;4337848;32;33208;-89
2022/06/08 05:15:51;;;;;;;7.35;3.97;;;;;;;21.63;66.69;99147.63;4338252;32;34296;-87
2022/06/08 05:18:20;;;;;;;6.80;4.95;;;;;;;21.73;66.64;99150.31;4338394;32;32389;-90
2022/06/08 05:20:49;;;;;;;6.57;4.30;;;;;;;21.83;66.27;99149.38;4339095;32;33128;-88
2022/06/08 05:23:23;;;;;;;7.20;4.25;;;;;;;22.21;64.73;99153.97;4338401;32;32543;-88
2022/06/08 05:25:54;;;;;;;5.82;3.75;;;;;;;21.91;64.44;99163.53;4337521;32;33947;-88
2022/06/08 05:28:23;;;;;;;5.85;3.53;;;;;;;22.04;64.09;99158.38;4337964;32;33335;-88
2022/06/08 05:30:53;;;;;;;7.45;3.50;;;;;;;22.14;63.59;99164.66;4338367;32;32602;-93
2022/06/08 05:33:26;;;;;;;5.37;3.33;;;;;;;21.58;65.35;99170.84;4338553;32;34774;-94
2022/06/08 05:35:56;;;;;;;7.62;4.03;;;;;;;21.86;65.09;99166.38;4338361;32;32816;-93
2022/06/08 05:38:24;;;;;;;6.75;4.50;;;;;;;21.93;65.11;99169.66;4350436;32;34751;-94
2022/06/08 05:40:53;;;;;;;7.72;4.20;;;;;;;22.11;64.65;99172.81;4338543;32;32929;-94
2022/06/08 05:43:23;;;;;;;5.45;3.58;;;;;;;21.82;65.22;99159.72;4338048;32;34179;-94
2022/06/08 05:45:52;;;;;;;4.85;3.28;;;;;;;22.12;64.39;99164.13;4348589;32;33909;-93
2022/06/08 05:48:20;;;;;;;6.97;4.18;;;;;;;21.74;64.55;99165.94;4337032;32;33776;-92
2022/06/08 05:50:52;;;;;;;7.12;4.07;;;;;;;21.95;64.53;99166.56;4337395;32;32334;-93
2022/06/08 05:53:22;;;;;;;6.22;3.55;;;;;;;21.80;64.98;99175.09;4336887;32;33195;-90
2022/06/08 05:55:54;;;;;;;6.70;4.00;;;;;;;22.18;63.96;99190.06;4337684;32;34905;-92
2022/06/08 05:58:32;;;;;;;7.43;4.30;;;;;;;22.26;64.45;99200.59;4338801;32;33261;-91
2022/06/08 06:01:01;;;;;;;7.22;4.05;;;;;;;22.45;62.77;99206.25;4338068;32;33153;-89
2022/06/08 06:03:30;;;;;;;7.05;4.37;;;;;;;21.99;63.68;99201.16;4338130;32;32324;-89
2022/06/08 06:06:00;;;;;;;7.00;4.12;;;;;;;22.12;63.25;99211.66;4338221;32;35360;-90
2022/06/08 06:08:28;;;;;;;6.05;3.83;;;;;;;22.41;62.49;99206.00;4337884;32;34534;-88
2022/06/08 06:10:56;;;;;;;5.70;4.12;;;;;;;22.34;63.17;99197.97;4337788;32;31689;-89
2022/06/08 06:13:24;;;;;;;6.95;4.22;;;;;;;22.29;63.39;99198.03;4337725;32;32250;-90
2022/06/08 06:15:57;;;;;;;8.68;4.05;;;;;;;22.57;62.70;99201.03;4338458;32;32621;-89
2022/06/08 06:18:30;;;;;;;10.25;4.53;;;;;;;22.80;61.91;99200.19;4337963;32;32835;-90
2022/06/08 06:20:59;;;;;;;7.10;4.18;;;;;;;22.72;62.12;99192.47;4349866;32;32023;-91
2022/06/08 06:23:28;;;;;;;8.00;4.15;;;;;;;22.68;63.53;99185.78;4325633;32;32251;-90
2022/06/08 06:25:56;;;;;;;10.10;4.28;;;;;;;22.74;62.19;99181.78;4350301;32;34177;-89
2022/06/08 06:28:24;;;;;;;15.13;9.27;;;;;;;22.73;62.23;99188.53;4325648;32;33379;-90
2022/06/08 06:30:55;;;;;;;8.13;4.60;;;;;;;22.71;62.23;99181.56;4337973;32;33910;-90
2022/06/08 06:33:23;;;;;;;7.53;4.22;;;;;;;22.86;61.79;99190.59;4338147;32;33676;-91
2022/06/08 06:35:57;;;;;;;6.82;4.60;;;;;;;22.67;62.28;99186.94;4337970;32;33916;-89
2022/06/08 06:38:25;;;;;;;6.25;4.35;;;;;;;22.86;62.14;99189.75;4338210;32;33485;-89
2022/06/08 06:40:53;;;;;;;7.68;5.10;;;;;;;22.82;63.40;99188.69;4338246;32;33634;-90
2022/06/08 06:43:21;;;;;;;9.30;6.22;;;;;;;22.89;62.74;99177.94;4337685;32;33851;-91
2022/06/08 06:45:51;;;;;;;8.07;5.10;;;;;;;22.74;62.11;99180.97;4337826;32;34389;-91
2022/06/08 06:48:19;;;;;;;7.82;4.25;;;;;;;22.89;62.14;99184.38;4337660;32;31920;-90
2022/06/08 06:50:47;;;;;;;6.68;4.70;;;;;;;22.99;61.27;99186.19;4337635;32;33328;-90
2022/06/08 06:53:15;;;;;;;8.18;4.78;;;;;;;22.78;62.28;99179.19;4337314;32;32148;-90
2022/06/08 06:55:48;;;;;;;6.15;4.20;;;;;;;23.06;61.62;99177.41;4339197;32;34510;-89
2022/06/08 06:58:17;;;;;;;8.50;4.97;;;;;;;23.03;61.65;99156.47;4338168;32;33618;-90
2022/06/08 07:00:45;;;;;;;7.18;4.47;;;;;;;22.83;62.69;99159.56;4337457;32;31779;-90
2022/06/08 07:03:16;;;;;;;6.95;4.62;;;;;;;23.00;62.43;99157.06;4337112;32;34077;-91
2022/06/08 07:05:45;;;;;;;9.63;4.15;;;;;;;23.06;62.79;99150.25;4337260;32;33011;-89
2022/06/08 07:08:13;;;;;;;8.98;4.53;;;;;;;23.09;62.07;99146.84;4337284;32;34278;-90
2022/06/08 07:10:43;;;;;;;6.85;4.78;;;;;;;23.09;61.63;99140.44;4337367;32;33540;-90
2022/06/08 07:13:13;;;;;;;9.18;4.93;;;;;;;23.33;61.45;99136.38;4325805;32;33265;-89
2022/06/08 07:15:41;;;;;;;8.07;4.78;;;;;;;23.42;61.02;99135.66;4349379;32;33840;-89
2022/06/08 07:18:09;;;;;;;6.25;4.05;;;;;;;23.47;61.41;99136.38;4337328;32;32355;-89
2022/06/08 07:20:37;;;;;;;5.65;3.78;;;;;;;23.28;61.36;99141.22;4337475;32;33302;-89
2022/06/08 07:23:07;;;;;;;5.72;3.78;;;;;;;23.67;60.29;99131.59;4337574;32;34021;-90
2022/06/08 07:25:35;;;;;;;7.18;3.90;;;;;;;23.78;61.16;99133.06;4337084;32;35346;-90
2022/06/08 07:28:06;;;;;;;5.97;4.12;;;;;;;23.89;60.59;99128.94;4337532;32;33341;-89
2022/06/08 07:30:34;;;;;;;6.03;4.03;;;;;;;24.16;60.23;99119.66;4337120;32;34170;-89
2022/06/08 07:33:03;;;;;;;19.42;10.23;;;;;;;24.26;59.99;99122.28;4337235;32;33099;-90
2022/06/08 07:35:30;;;;;;;6.65;4.62;;;;;;;24.30;59.32;99118.56;4337072;32;35224;-89
2022/06/08 07:37:59;;;;;;;9.35;4.68;;;;;;;24.50;59.47;99122.06;4336705;32;33437;-90
2022/06/08 07:40:26;;;;;;;7.37;4.05;;;;;;;24.55;59.86;99119.97;4336903;32;32388;-89
2022/06/08 07:42:54;;;;;;;6.12;4.47;;;;;;;24.68;59.43;99121.09;4336953;32;33585;-89
2022/06/08 07:45:22;;;;;;;6.05;4.60;;;;;;;24.79;59.13;99122.50;4336742;32;35422;-91
2022/06/08 07:50:38;;;;;;;7.50;4.70;;;;;;;25.08;57.67;99116.50;4338673;32;31782;-90
2022/06/08 07:53:06;;;;;;;7.00;5.07;;;;;;;25.23;57.36;99120.91;4348506;32;32395;-89
2022/06/08 07:55:34;;;;;;;10.40;5.70;;;;;;;25.25;56.08;99130.66;4336949;32;34634;-90
2022/06/08 07:58:03;;;;;;;6.32;4.82;;;;;;;25.28;55.42;99117.97;4337011;32;33173;-90
2022/06/08 08:00:32;;;;;;;7.85;5.28;;;;;;;25.32;54.45;99118.16;4337457;32;33280;-90
2022/06/08 08:03:02;;;;;;;8.32;5.22;;;;;;;25.50;55.19;99122.72;4324908;32;32518;-90
2022/06/08 08:05:35;;;;;;;8.32;5.90;;;;;;;25.42;54.65;99120.69;4337172;32;33913;-90
2022/06/08 08:08:04;;;;;;;7.20;5.20;;;;;;;25.26;54.71;99118.28;4349122;32;34153;-90
2022/06/08 08:10:33;;;;;;;9.32;5.70;;;;;;;25.51;54.08;99124.37;4349262;32;33660;-88
2022/06/08 08:13:02;;;;;;;10.30;5.93;;;;;;;25.49;53.68;99119.06;4337166;32;32734;-90
2022/06/08 08:15:30;;;;;;;9.00;5.57;;;;;;;25.67;54.50;99122.84;4337965;32;34338;-91
2022/06/08 08:17:58;;;;;;;8.32;5.53;;;;;;;25.69;54.87;99114.09;4326875;32;34218;-90
2022/06/08 08:20:28;;;;;;;12.13;6.18;;;;;;;25.43;55.26;99127.97;4339182;32;33970;-91
2022/06/08 08:22:58;;;;;;;8.05;5.50;;;;;;;25.61;53.99;99124.94;4339108;32;32479;-91
2022/06/08 08:25:26;;;;;;;8.07;5.53;;;;;;;25.69;53.90;99114.94;4338930;32;34381;-91
2022/06/08 08:27:54;;;;;;;8.43;6.10;;;;;;;25.79;53.23;99111.00;4351265;32;33549;-92
2022/06/08 08:30:26;;;;;;;11.07;6.15;;;;;;;25.89;52.87;99116.34;4339245;32;32938;-91
2022/06/08 08:32:57;;;;;;;7.60;5.75;;;;;;;25.57;53.76;99118.28;4338953;32;34583;-91
2022/06/08 08:35:27;;;;;;;10.32;6.03;;;;;;;25.48;54.42;99119.41;4363168;32;34313;-90
2022/06/08 08:37:56;;;;;;;7.22;6.20;;;;;;;25.57;53.70;99117.47;4338851;32;33512;-90
2022/06/08 08:40:52;;;;;;;7.85;5.93;;;;;;;25.82;53.55;99119.63;4339379;32;34017;-89
2022/06/08 08:43:23;;;;;;;9.15;6.40;;;;;;;26.06;52.89;99107.13;4363157;32;33543;-91
2022/06/08 08:46:12;;;;;;;8.63;6.10;;;;;;;26.05;52.49;99105.47;4338392;32;33989;-92
2022/06/08 08:48:53;;;;;;;7.95;5.97;;;;;;;26.27;52.46;99111.84;4362814;32;33972;-91
2022/06/08 08:51:25;;;;;;;10.00;5.28;;;;;;;26.16;52.64;99112.47;4351181;32;32865;-91
2022/06/08 08:54:02;;;;;;;9.35;6.55;;;;;;;26.15;53.09;99116.44;4335926;33;34458;-92
2022/06/08 08:56:35;;;;;;;14.23;6.43;;;;;;;26.57;51.55;99112.09;4347815;33;32884;-91
2022/06/08 08:59:12;;;;;;;8.25;5.95;;;;;;;26.62;51.17;99113.94;4335646;33;34024;-91
2022/06/08 09:01:42;;;;;;;10.40;6.55;;;;;;;26.38;51.92;99103.97;4348089;32;34041;-91
2022/06/08 09:04:31;;;;;;;10.38;6.43;;;;;;;26.41;51.76;99108.94;4335806;33;33190;-91
2022/06/08 09:07:17;;;;;;;9.43;7.03;;;;;;;26.80;51.63;99107.13;4347999;33;34469;-92
2022/06/08 09:09:45;;;;;;;10.30;6.77;;;;;;;26.89;51.38;99110.78;4335551;33;33369;-92
2022/06/08 09:12:21;;;;;;;7.70;5.93;;;;;;;27.13;50.43;99111.16;4335781;33;33396;-91
2022/06/08 09:15:00;;;;;;;10.07;6.72;;;;;;;27.23;50.41;99110.81;4336397;33;33093;-92
2022/06/08 09:17:32;;;;;;;;;;;;;;;27.10;51.45;99109.00;4336661;33;33689;-92
2022/06/08 09:20:16;;;;;;;11.05;7.57;;;;;;;27.59;50.09;99105.91;4347995;33;34218;-91
2022/06/08 09:22:55;;;;;;;11.82;7.70;;;;;;;27.33;49.60;99103.97;4347993;33;31841;-92
2022/06/08 09:25:26;;;;;;;9.57;6.85;;;;;;;27.38;48.87;99092.53;4336075;33;34661;-91
2022/06/08 09:27:56;;;;;;;10.63;6.72;;;;;;;27.15;50.67;99100.38;4351523;33;32863;-90
2022/06/08 09:30:47;;;;;;;9.45;7.70;;;;;;;27.10;51.14;99092.09;4352180;33;33714;-91
2022/06/08 09:33:24;;;;;;;9.48;6.65;;;;;;;27.23;49.14;99085.47;4340233;33;33290;-91
2022/06/08 09:36:05;;;;;;;9.23;6.40;;;;;;;27.30;49.64;99078.50;4338028;33;35150;-91
2022/06/08 09:38:36;;;;;;;9.65;6.57;;;;;;;27.30;50.43;99075.66;4336296;33;32586;-92
2022/06/08 09:41:27;;;;;;;8.27;6.28;;;;;;;27.34;50.55;99077.47;4335504;33;33773;-90
2022/06/08 09:44:17;;;;;;;9.13;6.37;;;;;;;27.41;48.61;99060.88;4347889;33;32104;-92
2022/06/08 09:52:47;;;;;;;19.35;15.55;;;;;;;27.66;48.93;99045.06;4348489;32;32362;-92
2022/06/08 09:55:28;;;;;;;8.65;6.22;;;;;;;27.87;48.18;99043.16;4350079;32;31760;-91
2022/06/08 09:58:20;;;;;;;8.00;6.22;;;;;;;27.85;47.80;99045.47;4337839;32;33224;-91
2022/06/08 10:01:03;;;;;;;10.27;6.22;;;;;;;28.08;45.61;99026.25;4362486;32;34671;-92
2022/06/08 10:03:52;;;;;;;9.00;5.95;;;;;;;28.53;46.42;99029.31;4338473;32;33333;-92
2022/06/08 10:06:56;;;;;;;10.98;5.57;;;;;;;28.63;45.83;99018.75;4350705;32;33246;-92
2022/06/08 10:09:30;;;;;;;8.30;6.07;;;;;;;28.66;45.85;99013.25;4350076;32;33427;-92
2022/06/08 10:12:06;;;;;;;8.10;5.87;;;;;;;28.44;45.22;99014.44;4350596;32;34333;-91
2022/06/08 10:14:39;;;;;;;9.60;5.47;;;;;;;28.67;45.92;99012.06;4364114;32;34131;-92
2022/06/08 10:17:18;;;;;;;10.80;6.12;;;;;;;28.81;45.46;99006.12;4350315;32;34232;-92
2022/06/08 10:19:53;;;;;;;8.45;5.57;;;;;;;28.77;44.14;99008.81;4338911;32;32316;-91
2022/06/08 10:22:24;;;;;;;7.95;5.62;;;;;;;29.03;44.26;99005.78;4363230;32;34985;-91
2022/06/08 10:24:58;;;;;;;8.95;5.80;;;;;;;28.51;44.63;99009.06;4350846;32;33402;-92
2022/06/08 10:27:41;;;;;;;7.62;5.40;;;;;;;29.18;43.66;99005.13;4338751;32;32336;-92
2022/06/08 10:30:15;;;;;;;6.20;5.28;;;;;;;29.42;43.32;98986.56;4338735;32;32420;-92
2022/06/08 10:33:27;;;;;;;8.20;5.00;;;;;;;29.16;43.72;98995.34;4350645;32;32895;-91
2022/06/08 10:35:56;;;;;;;6.65;5.03;;;;;;;29.26;42.63;98994.06;4350576;32;33267;-93
2022/06/08 10:38:28;;;;;;;7.87;5.32;;;;;;;29.38;42.79;98982.78;4337819;32;33190;-91
2022/06/08 10:44:02;;;;;;;8.35;4.87;;;;;;;28.99;41.88;98999.19;4342864;32;34726;-92
2022/06/08 10:46:40;;;;;;;7.07;4.87;;;;;;;29.37;41.90;98978.28;4339068;32;33292;-92
2022/06/08 10:49:40;;;;;;;7.55;4.07;;;;;;;29.01;42.26;98979.87;4338734;32;33443;-92
2022/06/08 10:52:17;;;;;;;7.03;4.03;;;;;;;29.14;42.25;98969.44;4350429;32;32547;-90
2022/06/08 10:54:55;;;;;;;7.85;4.00;;;;;;;29.16;39.65;98965.09;4347225;33;32921;-90
2022/06/08 10:57:42;;;;;;;7.75;4.18;;;;;;;28.95;39.17;98974.78;4335744;33;32355;-92
2022/06/08 11:00:42;;;;;;;5.32;3.97;;;;;;;29.02;38.46;98970.22;4349074;33;33472;-92
2022/06/08 11:03:31;;;;;;;6.05;3.95;;;;;;;28.97;38.40;98970.44;4316898;32;33852;-91
2022/06/08 11:06:01;;;;;;;5.68;3.78;;;;;;;29.31;38.08;98960.72;4362003;32;33241;-91
2022/06/08 11:08:51;;;;;;;8.63;3.80;;;;;;;29.46;38.13;98957.25;4338816;33;33386;-92
2022/06/08 11:11:41;;;;;;;5.70;3.60;;;;;;;29.74;38.30;98959.41;4351807;33;33549;-91
2022/06/08 11:14:29;;;;;;;9.23;5.00;;;;;;;29.75;37.54;98959.03;4352506;33;33943;-92
2022/06/08 11:17:03;;;;;;;7.55;4.35;;;;;;;29.57;36.45;98959.63;4338708;33;34871;-94
2022/06/08 11:19:33;;;;;;;7.87;3.75;;;;;;;29.68;37.06;98944.66;4336308;33;32493;-92
2022/06/08 11:22:05;;;;;;;5.97;3.65;;;;;;;29.62;36.20;98948.91;4336028;33;31812;-92
2022/06/08 11:24:42;;;;;;;8.00;3.47;;;;;;;29.35;36.68;98943.91;4348535;33;33533;-92
2022/06/08 11:27:10;;;;;;;7.80;3.42;;;;;;;29.44;37.51;98941.81;4336512;33;35092;-92
2022/06/08 11:29:52;;;;;;;7.07;3.22;;;;;;;29.58;37.17;98947.97;4348782;33;33732;-90
2022/06/08 11:32:32;;;;;;;4.78;3.40;;;;;;;29.41;37.42;98943.34;4348419;33;33416;-91
2022/06/08 11:35:04;;;;;;;6.00;3.47;;;;;;;29.42;37.68;98938.53;4359154;32;34736;-91
2022/06/08 11:37:53;;;;;;;6.15;3.40;;;;;;;29.29;37.58;98946.12;4359385;32;34510;-92
2022/06/08 11:40:27;;;;;;;4.65;3.12;;;;;;;29.39;36.81;98928.72;4347354;33;33764;-92
2022/06/08 11:43:00;;;;;;;5.10;3.03;;;;;;;29.30;37.47;98930.00;4335056;33;32651;-91
2022/06/08 11:45:38;;;;;;;5.32;3.30;;;;;;;28.98;37.58;98937.38;4335963;33;33265;-91
2022/06/08 11:48:29;;;;;;;4.62;3.20;;;;;;;29.04;36.73;98945.28;4360199;32;34493;-92
2022/06/08 11:50:59;;;;;;;6.12;3.55;;;;;;;29.08;37.61;98936.94;4335796;33;32104;-80
2022/06/08 11:53:28;;;;;;;8.95;3.95;;;;;;;29.12;37.43;98940.69;4348308;33;32096;-79
2022/06/08 11:56:04;;;;;;;6.68;3.80;;;;;;;29.04;37.40;98950.09;4348589;33;33155;-80
2022/06/08 11:58:41;;;;;;;7.22;4.07;;;;;;;28.69;38.17;98944.78;4348340;33;34570;-79
2022/06/08 12:01:19;;;;;;;6.53;3.70;;;;;;;28.94;37.91;98945.72;4360209;32;34585;-81
2022/06/08 12:03:49;;;;;;;5.93;3.65;;;;;;;28.97;37.19;98949.84;4348473;33;33249;-80
2022/06/08 12:06:24;;;;;;;7.05;3.90;;;;;;;29.11;37.38;98947.53;4348624;33;33722;-81
2022/06/08 12:09:07;;;;;;;7.82;3.60;;;;;;;29.11;37.59;98944.72;4348602;32;35286;-80
2022/06/08 12:11:40;;;;;;;7.65;4.57;;;;;;;29.18;37.23;98942.97;4349577;32;34304;-79
2022/06/08 12:14:21;;;;;;;8.57;4.60;;;;;;;29.29;37.66;98942.47;4350930;32;31785;-81
2022/06/08 12:17:00;;;;;;;6.70;5.10;;;;;;;28.75;43.71;98953.84;4363163;32;32372;-79
2022/06/08 12:19:54;;;;;;;6.80;4.70;;;;;;;28.60;47.00;98960.16;4357313;32;32871;-82
2022/06/08 12:22:29;;;;;;;7.20;5.45;;;;;;;28.91;46.79;98951.25;4360159;32;34038;-84